Terminal Aerodrome Forecast
Issued by NWS

Home | Current Version | Previous Version | Graphics & Text | Print | Product List | Glossary On
Versions: 1 2 3 4 5 6 7 8 9 10 11 12 13 14 15 16 17 18 19 20 21 22 23 24 25
000
FTUS43 KABR 271300 AAA
TAFPIR
TAF AMD
KPIR 271327Z 2713/2812 32011KT P6SM OVC080
     FM271600 31014G22KT P6SM VCSH BKN080 OVC100
     FM272100 31025G34KT P6SM SCT100=

USA.gov is the U.S. government's official web portal to all federal, state and local government web resources and services.